sensor_id;sensor_type;location;lat;lon;timestamp;temperature;humidity
47600;DHT22;33323;52.124;6.018;2023-09-08T00:02:25;17.90;99.90
47600;DHT22;33323;52.124;6.018;2023-09-08T00:04:53;17.90;99.90
47600;DHT22;33323;52.124;6.018;2023-09-08T00:07:20;17.90;99.90
47600;DHT22;33323;52.124;6.018;2023-09-08T00:09:48;18.00;99.90
47600;DHT22;33323;52.124;6.018;2023-09-08T00:12:15;17.90;99.90
47600;DHT22;33323;52.124;6.018;2023-09-08T00:14:42;18.00;99.90
47600;DHT22;33323;52.124;6.018;2023-09-08T00:17:09;18.00;99.90
47600;DHT22;33323;52.124;6.018;2023-09-08T00:19:36;18.00;99.90
47600;DHT22;33323;52.124;6.018;2023-09-08T00:22:05;17.90;99.90
47600;DHT22;33323;52.124;6.018;2023-09-08T00:24:33;17.80;99.90
47600;DHT22;33323;52.124;6.018;2023-09-08T00:27:01;17.90;99.90
47600;DHT22;33323;52.124;6.018;2023-09-08T00:29:28;17.90;99.90
47600;DHT22;33323;52.124;6.018;2023-09-08T00:31:56;17.90;99.90
47600;DHT22;33323;52.124;6.018;2023-09-08T00:34:23;17.90;99.90
47600;DHT22;33323;52.124;6.018;2023-09-08T00:36:50;17.80;99.90
47600;DHT22;33323;52.124;6.018;2023-09-08T00:39:18;17.70;99.90
47600;DHT22;33323;52.124;6.018;2023-09-08T00:41:45;17.60;99.90
47600;DHT22;33323;52.124;6.018;2023-09-08T00:44:12;17.60;99.90
47600;DHT22;33323;52.124;6.018;2023-09-08T00:46:39;17.50;99.90
47600;DHT22;33323;52.124;6.018;2023-09-08T00:49:07;17.50;99.90
47600;DHT22;33323;52.124;6.018;2023-09-08T00:51:36;17.50;99.90
47600;DHT22;33323;52.124;6.018;2023-09-08T00:54:06;17.40;99.90
47600;DHT22;33323;52.124;6.018;2023-09-08T00:56:34;17.40;99.90
47600;DHT22;33323;52.124;6.018;2023-09-08T00:59:02;17.30;99.90
47600;DHT22;33323;52.124;6.018;2023-09-08T01:01:30;17.30;99.90
47600;DHT22;33323;52.124;6.018;2023-09-08T01:03:58;17.30;99.90
47600;DHT22;33323;52.124;6.018;2023-09-08T01:06:26;17.30;99.90
47600;DHT22;33323;52.124;6.018;2023-09-08T01:08:54;17.30;99.90
47600;DHT22;33323;52.124;6.018;2023-09-08T01:11:23;17.20;99.90
47600;DHT22;33323;52.124;6.018;2023-09-08T01:13:50;17.10;99.90
47600;DHT22;33323;52.124;6.018;2023-09-08T01:16:17;16.80;99.90
47600;DHT22;33323;52.124;6.018;2023-09-08T01:18:46;16.70;99.90
47600;DHT22;33323;52.124;6.018;2023-09-08T01:27:02;16.60;99.90
47600;DHT22;33323;52.124;6.018;2023-09-08T01:29:30;16.70;99.90
47600;DHT22;33323;52.124;6.018;2023-09-08T01:31:57;16.70;99.90
47600;DHT22;33323;52.124;6.018;2023-09-08T01:34:25;16.70;99.90
47600;DHT22;33323;52.124;6.018;2023-09-08T01:36:52;16.70;99.90
47600;DHT22;33323;52.124;6.018;2023-09-08T01:39:20;16.70;99.90
47600;DHT22;33323;52.124;6.018;2023-09-08T01:41:47;16.70;99.90
47600;DHT22;33323;52.124;6.018;2023-09-08T01:44:14;16.70;99.90
47600;DHT22;33323;52.124;6.018;2023-09-08T01:46:41;16.70;99.90
47600;DHT22;33323;52.124;6.018;2023-09-08T01:49:08;16.70;99.90
47600;DHT22;33323;52.124;6.018;2023-09-08T01:51:36;16.60;99.90
47600;DHT22;33323;52.124;6.018;2023-09-08T01:54:03;16.50;99.90
47600;DHT22;33323;52.124;6.018;2023-09-08T01:56:30;16.30;99.90
47600;DHT22;33323;52.124;6.018;2023-09-08T01:58:57;16.20;99.90
47600;DHT22;33323;52.124;6.018;2023-09-08T02:01:26;16.20;99.90
47600;DHT22;33323;52.124;6.018;2023-09-08T02:03:53;16.20;99.90
47600;DHT22;33323;52.124;6.018;2023-09-08T02:06:20;16.30;99.90
47600;DHT22;33323;52.124;6.018;2023-09-08T02:08:47;16.30;99.90
47600;DHT22;33323;52.124;6.018;2023-09-08T02:11:14;16.30;99.90
47600;DHT22;33323;52.124;6.018;2023-09-08T02:13:45;16.30;99.90
47600;DHT22;33323;52.124;6.018;2023-09-08T02:16:16;16.30;99.90
47600;DHT22;33323;52.124;6.018;2023-09-08T02:18:44;16.30;99.90
47600;DHT22;33323;52.124;6.018;2023-09-08T02:21:12;16.20;99.90
47600;DHT22;33323;52.124;6.018;2023-09-08T02:23:39;16.20;99.90
47600;DHT22;33323;52.124;6.018;2023-09-08T02:26:06;16.20;99.90
47600;DHT22;33323;52.124;6.018;2023-09-08T02:28:34;16.20;99.90
47600;DHT22;33323;52.124;6.018;2023-09-08T02:31:01;16.20;99.90
47600;DHT22;33323;52.124;6.018;2023-09-08T02:33:29;16.10;99.90
47600;DHT22;33323;52.124;6.018;2023-09-08T02:36:03;16.10;99.90
47600;DHT22;33323;52.124;6.018;2023-09-08T02:38:35;16.10;99.90
47600;DHT22;33323;52.124;6.018;2023-09-08T02:41:04;16.10;99.90
47600;DHT22;33323;52.124;6.018;2023-09-08T02:43:31;16.00;99.90
47600;DHT22;33323;52.124;6.018;2023-09-08T02:45:58;15.90;99.90
47600;DHT22;33323;52.124;6.018;2023-09-08T02:48:26;15.90;99.90
47600;DHT22;33323;52.124;6.018;2023-09-08T02:50:53;15.90;99.90
47600;DHT22;33323;52.124;6.018;2023-09-08T02:53:20;15.90;99.90
47600;DHT22;33323;52.124;6.018;2023-09-08T02:55:49;15.90;99.90
47600;DHT22;33323;52.124;6.018;2023-09-08T02:58:16;15.80;99.90
47600;DHT22;33323;52.124;6.018;2023-09-08T03:00:43;15.70;99.90
47600;DHT22;33323;52.124;6.018;2023-09-08T03:03:10;15.70;99.90
47600;DHT22;33323;52.124;6.018;2023-09-08T03:05:37;15.70;99.90
47600;DHT22;33323;52.124;6.018;2023-09-08T03:08:05;15.60;99.90
47600;DHT22;33323;52.124;6.018;2023-09-08T03:10:33;15.60;99.90
47600;DHT22;33323;52.124;6.018;2023-09-08T03:13:06;15.60;99.90
47600;DHT22;33323;52.124;6.018;2023-09-08T03:15:34;15.60;99.90
47600;DHT22;33323;52.124;6.018;2023-09-08T03:18:01;15.60;99.90
47600;DHT22;33323;52.124;6.018;2023-09-08T03:20:28;15.50;99.90
47600;DHT22;33323;52.124;6.018;2023-09-08T03:22:56;15.40;99.90
47600;DHT22;33323;52.124;6.018;2023-09-08T03:25:23;15.30;99.90
47600;DHT22;33323;52.124;6.018;2023-09-08T03:27:50;15.20;99.90
47600;DHT22;33323;52.124;6.018;2023-09-08T03:30:17;15.20;99.90
47600;DHT22;33323;52.124;6.018;2023-09-08T03:32:44;15.10;99.90
47600;DHT22;33323;52.124;6.018;2023-09-08T03:35:12;15.10;99.90
47600;DHT22;33323;52.124;6.018;2023-09-08T03:37:40;15.10;99.90
47600;DHT22;33323;52.124;6.018;2023-09-08T03:40:08;15.00;99.90
47600;DHT22;33323;52.124;6.018;2023-09-08T03:42:36;15.00;99.90
47600;DHT22;33323;52.124;6.018;2023-09-08T03:45:04;15.00;99.90
47600;DHT22;33323;52.124;6.018;2023-09-08T03:47:32;15.10;99.90
47600;DHT22;33323;52.124;6.018;2023-09-08T03:49:59;15.10;99.90
47600;DHT22;33323;52.124;6.018;2023-09-08T03:52:26;15.10;99.90
47600;DHT22;33323;52.124;6.018;2023-09-08T03:54:53;15.00;99.90
47600;DHT22;33323;52.124;6.018;2023-09-08T03:57:20;15.00;99.90
47600;DHT22;33323;52.124;6.018;2023-09-08T03:59:47;14.90;99.90
47600;DHT22;33323;52.124;6.018;2023-09-08T04:02:14;14.90;99.90
47600;DHT22;33323;52.124;6.018;2023-09-08T04:04:41;14.90;99.90
47600;DHT22;33323;52.124;6.018;2023-09-08T04:07:08;14.90;99.90
47600;DHT22;33323;52.124;6.018;2023-09-08T04:09:36;15.00;99.90
47600;DHT22;33323;52.124;6.018;2023-09-08T04:12:03;15.00;99.90
47600;DHT22;33323;52.124;6.018;2023-09-08T04:14:32;15.00;99.90
47600;DHT22;33323;52.124;6.018;2023-09-08T04:17:00;15.00;99.90
47600;DHT22;33323;52.124;6.018;2023-09-08T04:19:27;14.90;99.90
47600;DHT22;33323;52.124;6.018;2023-09-08T04:21:54;14.90;99.90
47600;DHT22;33323;52.124;6.018;2023-09-08T04:24:22;14.90;99.90
47600;DHT22;33323;52.124;6.018;2023-09-08T04:26:49;14.90;99.90
47600;DHT22;33323;52.124;6.018;2023-09-08T04:29:16;14.90;99.90
47600;DHT22;33323;52.124;6.018;2023-09-08T04:31:43;14.90;99.90
47600;DHT22;33323;52.124;6.018;2023-09-08T04:34:10;14.90;99.90
47600;DHT22;33323;52.124;6.018;2023-09-08T04:36:37;14.90;99.90
47600;DHT22;33323;52.124;6.018;2023-09-08T04:39:04;14.90;99.90
47600;DHT22;33323;52.124;6.018;2023-09-08T04:41:31;14.80;99.90
47600;DHT22;33323;52.124;6.018;2023-09-08T04:43:58;14.70;99.90
47600;DHT22;33323;52.124;6.018;2023-09-08T04:46:26;14.60;99.90
47600;DHT22;33323;52.124;6.018;2023-09-08T04:48:53;14.60;99.90
47600;DHT22;33323;52.124;6.018;2023-09-08T04:51:22;14.50;99.90
47600;DHT22;33323;52.124;6.018;2023-09-08T04:53:49;14.40;99.90
47600;DHT22;33323;52.124;6.018;2023-09-08T04:56:16;14.40;99.90
47600;DHT22;33323;52.124;6.018;2023-09-08T04:58:44;14.50;99.90
47600;DHT22;33323;52.124;6.018;2023-09-08T05:01:12;14.50;99.90
47600;DHT22;33323;52.124;6.018;2023-09-08T05:03:39;14.60;99.90
47600;DHT22;33323;52.124;6.018;2023-09-08T05:06:07;14.60;99.90
47600;DHT22;33323;52.124;6.018;2023-09-08T05:08:34;14.60;99.90
47600;DHT22;33323;52.124;6.018;2023-09-08T05:11:02;14.50;99.90
47600;DHT22;33323;52.124;6.018;2023-09-08T05:13:31;14.50;99.90
47600;DHT22;33323;52.124;6.018;2023-09-08T05:16:01;14.50;99.90
47600;DHT22;33323;52.124;6.018;2023-09-08T05:18:42;14.60;99.90
47600;DHT22;33323;52.124;6.018;2023-09-08T05:21:09;14.60;99.90
47600;DHT22;33323;52.124;6.018;2023-09-08T05:23:37;14.60;99.90
47600;DHT22;33323;52.124;6.018;2023-09-08T05:26:04;14.70;99.90
47600;DHT22;33323;52.124;6.018;2023-09-08T05:28:32;14.70;99.90
47600;DHT22;33323;52.124;6.018;2023-09-08T05:31:04;14.80;99.90
47600;DHT22;33323;52.124;6.018;2023-09-08T05:33:33;14.70;99.90
47600;DHT22;33323;52.124;6.018;2023-09-08T05:36:00;14.70;99.90
47600;DHT22;33323;52.124;6.018;2023-09-08T05:38:28;14.80;99.90
47600;DHT22;33323;52.124;6.018;2023-09-08T05:40:55;14.90;99.90
47600;DHT22;33323;52.124;6.018;2023-09-08T05:43:25;15.10;99.90
47600;DHT22;33323;52.124;6.018;2023-09-08T05:45:53;15.60;99.90
47600;DHT22;33323;52.124;6.018;2023-09-08T05:48:20;16.20;99.90
47600;DHT22;33323;52.124;6.018;2023-09-08T05:50:48;16.80;99.90
47600;DHT22;33323;52.124;6.018;2023-09-08T05:53:15;17.20;99.90
47600;DHT22;33323;52.124;6.018;2023-09-08T05:55:43;17.60;99.90
47600;DHT22;33323;52.124;6.018;2023-09-08T05:58:10;18.10;99.90
47600;DHT22;33323;52.124;6.018;2023-09-08T06:00:37;18.40;99.90
47600;DHT22;33323;52.124;6.018;2023-09-08T06:03:04;18.80;99.90
47600;DHT22;33323;52.124;6.018;2023-09-08T06:05:32;19.20;99.90
47600;DHT22;33323;52.124;6.018;2023-09-08T06:07:59;19.60;99.90
47600;DHT22;33323;52.124;6.018;2023-09-08T06:10:38;20.00;99.90
47600;DHT22;33323;52.124;6.018;2023-09-08T06:13:07;20.40;99.90
47600;DHT22;33323;52.124;6.018;2023-09-08T06:15:35;20.80;99.90
47600;DHT22;33323;52.124;6.018;2023-09-08T06:18:04;21.00;99.90
47600;DHT22;33323;52.124;6.018;2023-09-08T06:20:31;21.40;99.90
47600;DHT22;33323;52.124;6.018;2023-09-08T06:22:58;21.70;99.90
47600;DHT22;33323;52.124;6.018;2023-09-08T06:25:26;21.80;99.90
47600;DHT22;33323;52.124;6.018;2023-09-08T06:27:55;22.00;99.90
47600;DHT22;33323;52.124;6.018;2023-09-08T06:30:22;22.30;99.90
47600;DHT22;33323;52.124;6.018;2023-09-08T06:32:49;22.30;99.90
47600;DHT22;33323;52.124;6.018;2023-09-08T06:35:17;22.50;99.90
47600;DHT22;33323;52.124;6.018;2023-09-08T06:37:44;22.60;99.90
47600;DHT22;33323;52.124;6.018;2023-09-08T06:40:11;22.50;99.90
47600;DHT22;33323;52.124;6.018;2023-09-08T06:42:38;22.30;99.90
47600;DHT22;33323;52.124;6.018;2023-09-08T06:45:12;22.00;99.90
47600;DHT22;33323;52.124;6.018;2023-09-08T06:47:40;21.80;99.90
47600;DHT22;33323;52.124;6.018;2023-09-08T06:50:07;21.60;99.90
47600;DHT22;33323;52.124;6.018;2023-09-08T06:52:34;21.40;99.90
47600;DHT22;33323;52.124;6.018;2023-09-08T06:55:02;21.30;99.90
47600;DHT22;33323;52.124;6.018;2023-09-08T06:57:31;21.20;99.90
47600;DHT22;33323;52.124;6.018;2023-09-08T06:59:59;21.10;99.90
47600;DHT22;33323;52.124;6.018;2023-09-08T07:02:26;21.00;99.90
47600;DHT22;33323;52.124;6.018;2023-09-08T07:04:54;20.90;99.90
47600;DHT22;33323;52.124;6.018;2023-09-08T07:07:21;20.80;99.90
47600;DHT22;33323;52.124;6.018;2023-09-08T07:09:50;20.90;99.90
47600;DHT22;33323;52.124;6.018;2023-09-08T07:12:17;20.80;99.90
47600;DHT22;33323;52.124;6.018;2023-09-08T07:14:44;20.80;99.90
47600;DHT22;33323;52.124;6.018;2023-09-08T07:17:11;20.80;99.90
47600;DHT22;33323;52.124;6.018;2023-09-08T07:19:39;20.90;99.90
47600;DHT22;33323;52.124;6.018;2023-09-08T07:22:07;21.00;99.90
47600;DHT22;33323;52.124;6.018;2023-09-08T07:24:34;21.00;99.90
47600;DHT22;33323;52.124;6.018;2023-09-08T07:27:02;21.10;99.90
47600;DHT22;33323;52.124;6.018;2023-09-08T07:29:29;21.10;99.90
47600;DHT22;33323;52.124;6.018;2023-09-08T07:31:56;21.10;99.90
47600;DHT22;33323;52.124;6.018;2023-09-08T07:34:23;21.10;99.90
47600;DHT22;33323;52.124;6.018;2023-09-08T07:36:51;21.10;99.90
47600;DHT22;33323;52.124;6.018;2023-09-08T07:39:18;21.20;99.90
47600;DHT22;33323;52.124;6.018;2023-09-08T07:41:45;21.20;99.90
47600;DHT22;33323;52.124;6.018;2023-09-08T07:44:13;21.20;99.90
47600;DHT22;33323;52.124;6.018;2023-09-08T07:46:40;21.30;99.90
47600;DHT22;33323;52.124;6.018;2023-09-08T07:49:07;21.40;99.90
47600;DHT22;33323;52.124;6.018;2023-09-08T07:51:34;21.50;99.90
47600;DHT22;33323;52.124;6.018;2023-09-08T07:54:01;21.50;99.90
47600;DHT22;33323;52.124;6.018;2023-09-08T07:56:30;21.60;99.90
47600;DHT22;33323;52.124;6.018;2023-09-08T07:58:57;21.60;99.90
47600;DHT22;33323;52.124;6.018;2023-09-08T08:01:24;21.80;99.90
47600;DHT22;33323;52.124;6.018;2023-09-08T08:03:51;21.80;99.90
47600;DHT22;33323;52.124;6.018;2023-09-08T08:06:19;21.80;99.90
47600;DHT22;33323;52.124;6.018;2023-09-08T08:08:46;22.00;99.90
47600;DHT22;33323;52.124;6.018;2023-09-08T08:11:15;22.30;99.90
47600;DHT22;33323;52.124;6.018;2023-09-08T08:13:45;22.70;99.90
47600;DHT22;33323;52.124;6.018;2023-09-08T08:16:12;23.10;99.90
47600;DHT22;33323;52.124;6.018;2023-09-08T08:18:40;23.40;99.90
47600;DHT22;33323;52.124;6.018;2023-09-08T08:21:07;23.70;99.90
47600;DHT22;33323;52.124;6.018;2023-09-08T08:23:34;24.00;99.90
47600;DHT22;33323;52.124;6.018;2023-09-08T08:26:03;24.40;99.90
47600;DHT22;33323;52.124;6.018;2023-09-08T08:28:30;24.80;99.90
47600;DHT22;33323;52.124;6.018;2023-09-08T08:30:57;24.90;99.90
47600;DHT22;33323;52.124;6.018;2023-09-08T08:33:24;25.20;99.90
47600;DHT22;33323;52.124;6.018;2023-09-08T08:35:53;25.40;99.90
47600;DHT22;33323;52.124;6.018;2023-09-08T08:38:20;25.30;99.90
47600;DHT22;33323;52.124;6.018;2023-09-08T08:40:47;25.50;99.90
47600;DHT22;33323;52.124;6.018;2023-09-08T08:43:15;25.80;99.90
47600;DHT22;33323;52.124;6.018;2023-09-08T08:45:43;26.20;99.90
47600;DHT22;33323;52.124;6.018;2023-09-08T08:48:13;26.30;99.90
47600;DHT22;33323;52.124;6.018;2023-09-08T08:50:42;26.50;99.90
47600;DHT22;33323;52.124;6.018;2023-09-08T08:53:10;26.30;99.90
47600;DHT22;33323;52.124;6.018;2023-09-08T08:55:39;26.20;99.90
47600;DHT22;33323;52.124;6.018;2023-09-08T08:58:07;26.40;99.90
47600;DHT22;33323;52.124;6.018;2023-09-08T09:00:35;26.70;99.90
47600;DHT22;33323;52.124;6.018;2023-09-08T09:03:05;26.70;99.90
47600;DHT22;33323;52.124;6.018;2023-09-08T09:05:41;27.20;99.90
47600;DHT22;33323;52.124;6.018;2023-09-08T09:08:29;27.70;99.90
47600;DHT22;33323;52.124;6.018;2023-09-08T09:10:56;28.10;99.90
47600;DHT22;33323;52.124;6.018;2023-09-08T09:13:23;28.00;99.90
47600;DHT22;33323;52.124;6.018;2023-09-08T09:15:50;27.70;99.90
47600;DHT22;33323;52.124;6.018;2023-09-08T09:18:18;27.60;99.90
47600;DHT22;33323;52.124;6.018;2023-09-08T09:20:54;27.50;99.90
47600;DHT22;33323;52.124;6.018;2023-09-08T09:23:33;27.80;99.90
47600;DHT22;33323;52.124;6.018;2023-09-08T09:26:03;27.80;99.90
47600;DHT22;33323;52.124;6.018;2023-09-08T09:28:34;27.80;99.90
47600;DHT22;33323;52.124;6.018;2023-09-08T09:31:01;27.90;99.90
47600;DHT22;33323;52.124;6.018;2023-09-08T09:33:28;27.90;99.90
47600;DHT22;33323;52.124;6.018;2023-09-08T09:35:57;28.00;99.90
47600;DHT22;33323;52.124;6.018;2023-09-08T09:38:26;28.00;99.90
47600;DHT22;33323;52.124;6.018;2023-09-08T09:40:54;27.90;99.90
47600;DHT22;33323;52.124;6.018;2023-09-08T09:43:22;27.80;99.90
47600;DHT22;33323;52.124;6.018;2023-09-08T09:45:53;27.90;99.90
47600;DHT22;33323;52.124;6.018;2023-09-08T09:48:21;27.90;99.90
47600;DHT22;33323;52.124;6.018;2023-09-08T09:50:50;27.80;99.90
47600;DHT22;33323;52.124;6.018;2023-09-08T09:53:17;27.70;99.90
47600;DHT22;33323;52.124;6.018;2023-09-08T09:55:45;27.80;99.90
47600;DHT22;33323;52.124;6.018;2023-09-08T09:58:13;27.90;99.90
47600;DHT22;33323;52.124;6.018;2023-09-08T10:00:42;28.20;99.90
47600;DHT22;33323;52.124;6.018;2023-09-08T10:03:15;28.60;99.90
47600;DHT22;33323;52.124;6.018;2023-09-08T10:05:42;28.20;99.90
47600;DHT22;33323;52.124;6.018;2023-09-08T10:08:10;28.60;99.90
47600;DHT22;33323;52.124;6.018;2023-09-08T10:10:37;28.90;99.90
47600;DHT22;33323;52.124;6.018;2023-09-08T10:13:06;29.50;99.90
47600;DHT22;33323;52.124;6.018;2023-09-08T10:15:34;29.80;99.90
47600;DHT22;33323;52.124;6.018;2023-09-08T10:18:06;30.10;99.90
47600;DHT22;33323;52.124;6.018;2023-09-08T10:20:36;30.00;99.90
47600;DHT22;33323;52.124;6.018;2023-09-08T10:23:09;29.80;99.90
47600;DHT22;33323;52.124;6.018;2023-09-08T10:25:44;29.50;99.90
47600;DHT22;33323;52.124;6.018;2023-09-08T10:28:16;29.00;99.90
47600;DHT22;33323;52.124;6.018;2023-09-08T10:30:45;28.90;99.90
47600;DHT22;33323;52.124;6.018;2023-09-08T10:33:13;29.00;99.90
47600;DHT22;33323;52.124;6.018;2023-09-08T10:35:43;29.10;99.90
47600;DHT22;33323;52.124;6.018;2023-09-08T10:38:27;29.40;99.90
47600;DHT22;33323;52.124;6.018;2023-09-08T10:43:55;29.60;99.90
47600;DHT22;33323;52.124;6.018;2023-09-08T10:46:28;29.50;99.90
47600;DHT22;33323;52.124;6.018;2023-09-08T10:49:06;29.50;99.90
47600;DHT22;33323;52.124;6.018;2023-09-08T10:51:35;29.50;99.90
47600;DHT22;33323;52.124;6.018;2023-09-08T10:54:02;29.40;99.90
47600;DHT22;33323;52.124;6.018;2023-09-08T10:56:56;29.40;99.90
47600;DHT22;33323;52.124;6.018;2023-09-08T10:59:34;29.60;99.90
47600;DHT22;33323;52.124;6.018;2023-09-08T11:02:05;29.30;99.90
47600;DHT22;33323;52.124;6.018;2023-09-08T11:04:34;29.50;99.90
47600;DHT22;33323;52.124;6.018;2023-09-08T11:07:04;29.80;99.90
47600;DHT22;33323;52.124;6.018;2023-09-08T11:09:36;30.10;99.90
47600;DHT22;33323;52.124;6.018;2023-09-08T11:12:04;29.90;99.90
47600;DHT22;33323;52.124;6.018;2023-09-08T11:14:35;29.80;99.90
47600;DHT22;33323;52.124;6.018;2023-09-08T11:17:03;29.90;99.90
47600;DHT22;33323;52.124;6.018;2023-09-08T11:19:47;29.90;99.90
47600;DHT22;33323;52.124;6.018;2023-09-08T11:22:17;30.30;99.90
47600;DHT22;33323;52.124;6.018;2023-09-08T11:24:45;30.30;99.90
47600;DHT22;33323;52.124;6.018;2023-09-08T11:27:13;30.60;99.90
47600;DHT22;33323;52.124;6.018;2023-09-08T11:29:40;30.50;99.90
47600;DHT22;33323;52.124;6.018;2023-09-08T11:32:08;30.20;99.90
47600;DHT22;33323;52.124;6.018;2023-09-08T11:34:37;30.20;99.90
47600;DHT22;33323;52.124;6.018;2023-09-08T11:37:11;30.40;99.90
47600;DHT22;33323;52.124;6.018;2023-09-08T11:39:40;30.40;99.90
47600;DHT22;33323;52.124;6.018;2023-09-08T11:42:15;30.20;99.90
47600;DHT22;33323;52.124;6.018;2023-09-08T11:44:42;30.50;99.90
47600;DHT22;33323;52.124;6.018;2023-09-08T11:47:11;30.30;99.90
47600;DHT22;33323;52.124;6.018;2023-09-08T11:49:42;30.10;99.90
47600;DHT22;33323;52.124;6.018;2023-09-08T11:52:11;30.00;99.90
47600;DHT22;33323;52.124;6.018;2023-09-08T11:54:40;30.00;99.90
47600;DHT22;33323;52.124;6.018;2023-09-08T11:57:28;30.30;99.90
47600;DHT22;33323;52.124;6.018;2023-09-08T11:59:56;30.30;99.90
47600;DHT22;33323;52.124;6.018;2023-09-08T12:02:24;30.40;99.90
47600;DHT22;33323;52.124;6.018;2023-09-08T12:04:53;30.60;99.90
47600;DHT22;33323;52.124;6.018;2023-09-08T12:07:21;30.70;99.90
47600;DHT22;33323;52.124;6.018;2023-09-08T12:09:49;30.50;99.90
47600;DHT22;33323;52.124;6.018;2023-09-08T12:12:16;30.50;99.90
47600;DHT22;33323;52.124;6.018;2023-09-08T12:14:44;30.40;99.90
47600;DHT22;33323;52.124;6.018;2023-09-08T12:17:14;30.80;99.90
47600;DHT22;33323;52.124;6.018;2023-09-08T12:19:44;30.70;99.90
47600;DHT22;33323;52.124;6.018;2023-09-08T12:22:12;30.80;99.90
47600;DHT22;33323;52.124;6.018;2023-09-08T12:24:48;30.70;99.90
47600;DHT22;33323;52.124;6.018;2023-09-08T12:27:29;30.70;99.90
47600;DHT22;33323;52.124;6.018;2023-09-08T12:29:58;30.60;99.90
47600;DHT22;33323;52.124;6.018;2023-09-08T12:32:32;30.50;99.90
47600;DHT22;33323;52.124;6.018;2023-09-08T12:35:01;30.70;99.90
47600;DHT22;33323;52.124;6.018;2023-09-08T12:37:33;30.80;99.90
47600;DHT22;33323;52.124;6.018;2023-09-08T12:40:00;30.90;99.90
47600;DHT22;33323;52.124;6.018;2023-09-08T12:42:28;30.70;99.90
47600;DHT22;33323;52.124;6.018;2023-09-08T12:44:59;30.60;99.90
47600;DHT22;33323;52.124;6.018;2023-09-08T12:47:28;30.60;99.90
47600;DHT22;33323;52.124;6.018;2023-09-08T12:49:55;30.70;99.90
47600;DHT22;33323;52.124;6.018;2023-09-08T12:52:23;31.20;99.90
47600;DHT22;33323;52.124;6.018;2023-09-08T12:54:50;31.60;99.90
47600;DHT22;33323;52.124;6.018;2023-09-08T12:57:18;31.50;99.90
47600;DHT22;33323;52.124;6.018;2023-09-08T12:59:45;31.00;99.90
47600;DHT22;33323;52.124;6.018;2023-09-08T13:02:13;31.00;99.90
47600;DHT22;33323;52.124;6.018;2023-09-08T13:04:43;30.90;99.90
47600;DHT22;33323;52.124;6.018;2023-09-08T13:07:18;30.80;99.90
47600;DHT22;33323;52.124;6.018;2023-09-08T13:09:45;30.90;99.90
47600;DHT22;33323;52.124;6.018;2023-09-08T13:12:13;31.20;99.90
47600;DHT22;33323;52.124;6.018;2023-09-08T13:14:40;31.50;99.90
47600;DHT22;33323;52.124;6.018;2023-09-08T13:17:08;31.70;99.90
47600;DHT22;33323;52.124;6.018;2023-09-08T13:19:35;31.80;99.90
47600;DHT22;33323;52.124;6.018;2023-09-08T13:22:04;31.90;99.90
47600;DHT22;33323;52.124;6.018;2023-09-08T13:24:32;32.00;99.90
47600;DHT22;33323;52.124;6.018;2023-09-08T13:27:00;31.60;99.90
47600;DHT22;33323;52.124;6.018;2023-09-08T13:29:28;31.70;99.90
47600;DHT22;33323;52.124;6.018;2023-09-08T13:31:56;31.90;99.90
47600;DHT22;33323;52.124;6.018;2023-09-08T13:34:24;32.20;99.90
47600;DHT22;33323;52.124;6.018;2023-09-08T13:36:52;32.30;99.90
47600;DHT22;33323;52.124;6.018;2023-09-08T13:39:19;32.10;99.90
47600;DHT22;33323;52.124;6.018;2023-09-08T13:41:48;32.30;99.90
47600;DHT22;33323;52.124;6.018;2023-09-08T13:44:21;32.30;99.90
47600;DHT22;33323;52.124;6.018;2023-09-08T13:46:50;32.10;99.90
47600;DHT22;33323;52.124;6.018;2023-09-08T13:49:19;32.30;99.90
47600;DHT22;33323;52.124;6.018;2023-09-08T13:51:49;32.30;99.90
47600;DHT22;33323;52.124;6.018;2023-09-08T13:54:21;32.10;99.90
47600;DHT22;33323;52.124;6.018;2023-09-08T13:57:01;32.20;99.90
47600;DHT22;33323;52.124;6.018;2023-09-08T13:59:34;32.20;99.90
47600;DHT22;33323;52.124;6.018;2023-09-08T14:02:03;31.80;99.90
47600;DHT22;33323;52.124;6.018;2023-09-08T14:04:33;31.90;99.90
47600;DHT22;33323;52.124;6.018;2023-09-08T14:07:06;32.20;99.90
47600;DHT22;33323;52.124;6.018;2023-09-08T14:09:43;32.10;99.90
47600;DHT22;33323;52.124;6.018;2023-09-08T14:12:20;32.20;99.90
47600;DHT22;33323;52.124;6.018;2023-09-08T14:14:49;32.10;99.90
47600;DHT22;33323;52.124;6.018;2023-09-08T14:17:16;32.20;99.90
47600;DHT22;33323;52.124;6.018;2023-09-08T14:19:44;32.30;99.90
47600;DHT22;33323;52.124;6.018;2023-09-08T14:22:12;32.30;99.90
47600;DHT22;33323;52.124;6.018;2023-09-08T14:24:39;32.40;99.90
47600;DHT22;33323;52.124;6.018;2023-09-08T14:27:07;32.30;99.90
47600;DHT22;33323;52.124;6.018;2023-09-08T14:29:35;32.00;99.90
47600;DHT22;33323;52.124;6.018;2023-09-08T14:32:02;31.70;99.90
47600;DHT22;33323;52.124;6.018;2023-09-08T14:34:29;31.60;99.90
47600;DHT22;33323;52.124;6.018;2023-09-08T14:36:57;31.60;99.90
47600;DHT22;33323;52.124;6.018;2023-09-08T14:39:24;31.60;99.90
47600;DHT22;33323;52.124;6.018;2023-09-08T14:41:54;31.60;99.90
47600;DHT22;33323;52.124;6.018;2023-09-08T14:44:22;31.60;99.90
47600;DHT22;33323;52.124;6.018;2023-09-08T14:46:50;31.70;99.90
47600;DHT22;33323;52.124;6.018;2023-09-08T14:49:18;31.80;99.90
47600;DHT22;33323;52.124;6.018;2023-09-08T14:51:46;31.80;99.90
47600;DHT22;33323;52.124;6.018;2023-09-08T14:54:13;31.70;99.90
47600;DHT22;33323;52.124;6.018;2023-09-08T14:56:41;31.90;99.90
47600;DHT22;33323;52.124;6.018;2023-09-08T14:59:08;32.00;99.90
47600;DHT22;33323;52.124;6.018;2023-09-08T15:01:36;32.00;99.90
47600;DHT22;33323;52.124;6.018;2023-09-08T15:04:05;31.80;99.90
47600;DHT22;33323;52.124;6.018;2023-09-08T15:06:33;32.00;99.90
47600;DHT22;33323;52.124;6.018;2023-09-08T15:09:00;31.90;99.90
47600;DHT22;33323;52.124;6.018;2023-09-08T15:11:27;32.10;99.90
47600;DHT22;33323;52.124;6.018;2023-09-08T15:13:55;32.30;99.90
47600;DHT22;33323;52.124;6.018;2023-09-08T15:16:22;32.20;99.90
47600;DHT22;33323;52.124;6.018;2023-09-08T15:18:50;32.20;99.90
47600;DHT22;33323;52.124;6.018;2023-09-08T15:21:17;32.20;99.90
47600;DHT22;33323;52.124;6.018;2023-09-08T15:23:46;32.20;99.90
47600;DHT22;33323;52.124;6.018;2023-09-08T15:26:14;32.00;99.90
47600;DHT22;33323;52.124;6.018;2023-09-08T15:28:42;32.00;99.90
47600;DHT22;33323;52.124;6.018;2023-09-08T15:31:09;31.80;99.90
47600;DHT22;33323;52.124;6.018;2023-09-08T15:33:38;31.70;99.90
47600;DHT22;33323;52.124;6.018;2023-09-08T15:36:06;31.60;99.90
47600;DHT22;33323;52.124;6.018;2023-09-08T15:38:33;31.80;99.90
47600;DHT22;33323;52.124;6.018;2023-09-08T15:43:39;31.60;99.90
47600;DHT22;33323;52.124;6.018;2023-09-08T15:46:08;31.70;99.90
47600;DHT22;33323;52.124;6.018;2023-09-08T15:48:39;31.80;99.90
47600;DHT22;33323;52.124;6.018;2023-09-08T15:51:07;31.60;99.90